createdAt,value
2018-09-15T00:00:56.324Z,0.00
2018-09-15T00:01:56.347Z,0.00
2018-09-15T00:02:56.321Z,0.00
2018-09-15T00:03:56.346Z,0.00
2018-09-15T00:04:56.319Z,0.00
2018-09-15T00:05:56.317Z,0.00
2018-09-15T00:06:56.315Z,0.00
2018-09-15T00:07:56.319Z,0.00
2018-09-15T00:08:56.342Z,0.00
2018-09-15T00:09:56.317Z,0.00
2018-09-15T00:10:56.313Z,0.00
2018-09-15T00:11:56.313Z,0.00
2018-09-15T00:12:56.343Z,0.00
2018-09-15T00:13:56.312Z,0.00
2018-09-15T00:14:56.311Z,0.00
2018-09-15T00:15:56.312Z,0.00
2018-09-15T00:16:56.309Z,0.00
2018-09-15T00:17:56.344Z,0.00
2018-09-15T00:18:56.345Z,0.00
2018-09-15T00:19:56.311Z,0.00
2018-09-15T00:20:56.310Z,0.00
2018-09-15T00:21:56.308Z,0.00
2018-09-15T00:22:56.342Z,0.00
2018-09-15T00:23:56.330Z,0.00
2018-09-15T00:24:56.303Z,0.00
2018-09-15T00:25:56.311Z,0.00
2018-09-15T00:26:56.309Z,0.00
2018-09-15T00:27:56.303Z,0.00
2018-09-15T00:28:56.325Z,0.00
2018-09-15T00:29:56.301Z,0.00
2018-09-15T00:30:56.307Z,0.00
2018-09-15T00:31:56.298Z,0.00
2018-09-15T00:32:56.333Z,0.00
2018-09-15T00:33:56.304Z,0.00
2018-09-15T00:34:56.300Z,0.00
2018-09-15T00:35:56.299Z,0.00
2018-09-15T00:36:56.295Z,0.00
2018-09-15T00:37:56.324Z,0.00
2018-09-15T00:38:56.327Z,0.00
2018-09-15T00:39:56.300Z,0.00
2018-09-15T00:40:56.296Z,0.00
2018-09-15T00:41:56.406Z,0.00
2018-09-15T00:42:56.314Z,0.00
2018-09-15T00:43:56.294Z,0.00
2018-09-15T00:44:56.288Z,0.00
2018-09-15T00:45:56.285Z,0.00
2018-09-15T00:46:56.295Z,0.00
2018-09-15T00:47:56.314Z,0.00
2018-09-15T00:48:56.286Z,0.00
2018-09-15T00:49:56.281Z,0.00
2018-09-15T00:50:56.285Z,0.00
2018-09-15T00:51:56.291Z,0.00
2018-09-15T00:52:56.309Z,0.00
2018-09-15T00:53:56.282Z,0.00
2018-09-15T00:54:56.282Z,0.00
2018-09-15T00:55:56.281Z,0.00
2018-09-15T00:56:56.279Z,0.00
2018-09-15T00:57:56.307Z,0.00
2018-09-15T00:58:56.279Z,0.00
2018-09-15T00:59:56.278Z,0.00
2018-09-15T01:00:56.276Z,0.00
2018-09-15T01:01:56.282Z,0.00
2018-09-15T01:02:56.304Z,0.00
2018-09-15T01:03:56.458Z,0.00
2018-09-15T01:04:56.276Z,0.00
2018-09-15T01:05:56.273Z,0.00
2018-09-15T01:06:56.275Z,0.00
2018-09-15T01:07:56.304Z,0.00
2018-09-15T01:08:56.273Z,0.00
2018-09-15T01:09:56.274Z,0.00
2018-09-15T01:10:56.264Z,0.00
2018-09-15T01:11:56.265Z,0.00
2018-09-15T01:12:56.301Z,0.00
2018-09-15T01:13:56.276Z,0.00
2018-09-15T01:14:56.294Z,0.00
2018-09-15T01:15:56.264Z,0.00
2018-09-15T01:16:56.265Z,0.00
2018-09-15T01:17:56.265Z,0.00
2018-09-15T01:18:56.292Z,0.00
2018-09-15T01:19:56.263Z,0.00
2018-09-15T01:20:56.261Z,0.00
2018-09-15T01:21:56.262Z,0.00
2018-09-15T01:22:56.291Z,0.00
2018-09-15T01:23:56.262Z,0.00
2018-09-15T01:24:56.254Z,0.00
2018-09-15T01:25:56.263Z,0.00
2018-09-15T01:26:56.259Z,0.00
2018-09-15T01:27:56.288Z,0.00
2018-09-15T01:28:56.263Z,0.00
2018-09-15T01:29:56.259Z,0.00
2018-09-15T01:30:56.254Z,0.00
2018-09-15T01:31:56.255Z,0.00
2018-09-15T01:32:56.278Z,0.00
2018-09-15T01:33:56.259Z,0.00
2018-09-15T01:34:56.251Z,0.00
2018-09-15T01:35:56.256Z,0.00
2018-09-15T01:36:56.261Z,0.00
2018-09-15T01:37:56.286Z,0.00
2018-09-15T01:38:56.244Z,0.00
2018-09-15T01:39:56.243Z,0.00
2018-09-15T01:40:56.250Z,0.00
2018-09-15T01:41:56.252Z,0.00
2018-09-15T01:42:56.272Z,0.00
2018-09-15T01:43:56.438Z,0.00
2018-09-15T01:44:56.247Z,0.00
2018-09-15T01:45:56.244Z,0.00
2018-09-15T01:46:56.271Z,0.00
2018-09-15T01:47:56.240Z,0.00
2018-09-15T01:48:56.242Z,0.00
2018-09-15T01:49:56.240Z,0.00
2018-09-15T01:50:56.249Z,0.00
2018-09-15T01:51:56.271Z,0.00
2018-09-15T01:52:56.235Z,0.00
2018-09-15T01:53:56.238Z,0.00
2018-09-15T01:54:56.240Z,0.00
2018-09-15T01:55:56.239Z,0.00
2018-09-15T01:56:56.263Z,0.00
2018-09-15T01:57:56.238Z,0.00
2018-09-15T01:58:56.235Z,0.00
2018-09-15T01:59:56.228Z,0.00
2018-09-15T02:00:56.231Z,0.00
2018-09-15T02:01:56.268Z,0.00
2018-09-15T02:02:56.228Z,0.00
2018-09-15T02:03:56.228Z,0.00
2018-09-15T02:04:56.249Z,0.00
2018-09-15T02:05:56.229Z,0.00
2018-09-15T02:06:56.254Z,0.00
2018-09-15T02:07:56.228Z,0.00
2018-09-15T02:08:56.224Z,0.00
2018-09-15T02:09:56.227Z,0.00
2018-09-15T02:10:56.228Z,0.00
2018-09-15T02:11:56.253Z,0.00
2018-09-15T02:12:56.257Z,0.00
2018-09-15T02:13:56.226Z,0.00
2018-09-15T02:14:56.222Z,0.00
2018-09-15T02:15:56.226Z,0.00
2018-09-15T02:16:56.221Z,0.00
2018-09-15T02:17:56.250Z,0.00
2018-09-15T02:18:56.216Z,0.00
2018-09-15T02:19:56.219Z,0.00
2018-09-15T02:20:56.218Z,0.00
2018-09-15T02:21:56.219Z,0.00
2018-09-15T02:22:56.304Z,0.00
2018-09-15T02:23:56.215Z,0.00
2018-09-15T02:24:56.214Z,0.00
2018-09-15T02:25:56.216Z,0.00
2018-09-15T02:26:56.216Z,0.00
2018-09-15T02:27:56.241Z,0.00
2018-09-15T02:28:56.237Z,0.00
2018-09-15T02:29:56.210Z,0.00
2018-09-15T02:30:56.211Z,0.00
2018-09-15T02:31:56.207Z,0.00
2018-09-15T02:32:56.242Z,0.00
2018-09-15T02:33:56.206Z,0.00
2018-09-15T02:34:56.211Z,0.00
2018-09-15T02:35:56.207Z,0.00
2018-09-15T02:36:56.201Z,0.00
2018-09-15T02:37:56.229Z,0.00
2018-09-15T02:38:56.201Z,0.00
2018-09-15T02:39:56.205Z,0.00
2018-09-15T02:40:56.198Z,0.00
2018-09-15T02:41:56.209Z,0.00
2018-09-15T02:42:56.226Z,0.00
2018-09-15T02:43:56.196Z,0.00
2018-09-15T02:44:56.191Z,0.00
2018-09-15T02:45:56.198Z,0.00
2018-09-15T02:46:56.195Z,0.00
2018-09-15T02:47:56.223Z,0.00
2018-09-15T02:48:56.191Z,0.00
2018-09-15T02:49:56.197Z,0.00
2018-09-15T02:50:56.188Z,0.00
2018-09-15T02:51:56.186Z,0.00
2018-09-15T02:52:56.215Z,0.00
2018-09-15T02:53:56.188Z,0.00
2018-09-15T02:54:56.277Z,0.00
2018-09-15T02:55:56.187Z,0.00
2018-09-15T02:56:56.189Z,0.00
2018-09-15T02:57:56.209Z,0.00
2018-09-15T02:58:56.188Z,0.00
2018-09-15T02:59:56.184Z,0.00
2018-09-15T03:00:56.181Z,0.00
2018-09-15T03:01:56.177Z,0.00
2018-09-15T03:02:56.205Z,0.00
2018-09-15T03:03:56.177Z,0.00
2018-09-15T03:04:56.174Z,0.00
2018-09-15T03:05:56.174Z,0.00
2018-09-15T03:06:56.178Z,0.00
2018-09-15T03:07:56.198Z,0.00
2018-09-15T03:08:56.174Z,0.00
2018-09-15T03:09:56.178Z,0.00
2018-09-15T03:10:56.228Z,0.00
2018-09-15T03:11:56.163Z,0.00
2018-09-15T03:12:56.194Z,0.00
2018-09-15T03:13:56.167Z,0.00
2018-09-15T03:14:56.167Z,0.00
2018-09-15T03:15:56.164Z,0.00
2018-09-15T03:16:56.195Z,0.00
2018-09-15T03:17:56.159Z,0.00
2018-09-15T03:18:56.231Z,0.00
2018-09-15T03:19:56.160Z,0.00
2018-09-15T03:20:56.160Z,0.00
2018-09-15T03:21:56.190Z,0.00
2018-09-15T03:22:56.155Z,0.00
2018-09-15T03:23:56.167Z,0.00
2018-09-15T03:24:56.152Z,0.00
2018-09-15T03:25:56.153Z,0.00
2018-09-15T03:26:56.183Z,0.00
2018-09-15T03:27:56.149Z,0.00
2018-09-15T03:28:56.149Z,0.00
2018-09-15T03:29:56.151Z,0.00
2018-09-15T03:30:56.159Z,0.00
2018-09-15T03:31:56.174Z,0.00
2018-09-15T03:32:56.146Z,0.00
2018-09-15T03:33:56.142Z,0.00
2018-09-15T03:34:56.141Z,0.00
2018-09-15T03:35:56.146Z,0.00
2018-09-15T03:36:56.169Z,0.00
2018-09-15T03:37:56.138Z,0.00
2018-09-15T03:38:56.136Z,0.00
2018-09-15T03:39:56.131Z,0.00
2018-09-15T03:40:56.132Z,0.00
2018-09-15T03:41:56.164Z,0.00
2018-09-15T03:42:56.129Z,0.00
2018-09-15T03:43:56.128Z,0.00
2018-09-15T03:44:56.157Z,0.00
2018-09-15T03:45:56.128Z,0.00
2018-09-15T03:46:56.127Z,0.00
2018-09-15T03:47:56.149Z,0.00
2018-09-15T03:48:56.121Z,0.00
2018-09-15T03:49:56.132Z,0.00
2018-09-15T03:50:56.117Z,0.00
2018-09-15T03:51:56.147Z,0.00
2018-09-15T03:52:56.141Z,0.00
2018-09-15T03:53:56.113Z,0.00
2018-09-15T03:54:56.108Z,0.00
2018-09-15T03:55:56.109Z,0.00
2018-09-15T03:56:56.108Z,0.00
2018-09-15T03:57:56.130Z,0.00
2018-09-15T03:58:56.110Z,0.00
2018-09-15T03:59:56.122Z,0.00
2018-09-15T04:00:56.097Z,0.00
2018-09-15T04:01:56.102Z,0.00
2018-09-15T04:02:56.124Z,0.00
2018-09-15T04:03:56.100Z,0.00
2018-09-15T04:04:56.091Z,0.00
2018-09-15T04:05:56.092Z,0.00
2018-09-15T04:06:56.087Z,0.00
2018-09-15T04:07:56.118Z,0.00
2018-09-15T04:08:56.088Z,0.00
2018-09-15T04:09:56.111Z,0.00
2018-09-15T04:10:56.084Z,0.00
2018-09-15T04:11:56.077Z,0.00
2018-09-15T04:12:56.080Z,0.00
2018-09-15T04:13:56.103Z,0.00
2018-09-15T04:14:56.075Z,0.00
2018-09-15T04:15:56.069Z,4.00
2018-09-15T04:16:56.068Z,4.00
2018-09-15T04:17:56.069Z,4.00
2018-09-15T04:18:56.099Z,4.00
2018-09-15T04:19:56.068Z,4.00
2018-09-15T04:20:56.061Z,8.00
2018-09-15T04:21:56.057Z,4.00
2018-09-15T04:22:56.084Z,4.00
2018-09-15T04:23:56.058Z,12.00
2018-09-15T04:24:56.058Z,12.00
2018-09-15T04:25:56.080Z,12.00
2018-09-15T04:26:56.051Z,16.00
2018-09-15T04:27:56.045Z,20.00
2018-09-15T04:28:56.073Z,20.00
2018-09-15T04:29:56.045Z,28.00
2018-09-15T04:30:56.039Z,32.00
2018-09-15T04:31:56.045Z,36.00
2018-09-15T04:32:56.039Z,44.00
2018-09-15T04:33:56.062Z,52.00
2018-09-15T04:34:56.038Z,56.00
2018-09-15T04:35:56.037Z,72.00
2018-09-15T04:36:56.028Z,84.00
2018-09-15T04:37:56.057Z,100.00
2018-09-15T04:38:56.031Z,120.00
2018-09-15T04:39:56.032Z,136.00
2018-09-15T04:40:56.027Z,152.00
2018-09-15T04:41:56.024Z,172.00
2018-09-15T04:42:56.053Z,192.00
2018-09-15T04:43:56.025Z,212.00
2018-09-15T04:44:56.025Z,232.00
2018-09-15T04:45:56.050Z,248.00
2018-09-15T04:46:56.032Z,268.00
2018-09-15T04:47:56.013Z,288.00
2018-09-15T04:48:56.051Z,308.00
2018-09-15T04:49:56.006Z,340.00
2018-09-15T04:50:56.008Z,368.00
2018-09-15T04:51:56.005Z,392.00
2018-09-15T04:52:56.009Z,412.00
2018-09-15T04:53:56.033Z,444.00
2018-09-15T04:54:56.002Z,484.00
2018-09-15T04:55:56.000Z,536.00
2018-09-15T04:56:55.999Z,588.00
2018-09-15T04:57:56.025Z,652.00
2018-09-15T04:58:56.091Z,728.00
2018-09-15T04:59:55.995Z,808.00
2018-09-15T05:00:55.993Z,884.00
2018-09-15T05:01:55.991Z,960.00
2018-09-15T05:02:56.014Z,1036.00
2018-09-15T05:03:55.986Z,1104.00
2018-09-15T05:04:55.983Z,1188.00
2018-09-15T05:05:55.986Z,1264.00
2018-09-15T05:06:55.983Z,1348.00
2018-09-15T05:07:56.002Z,1424.00
2018-09-15T05:08:55.983Z,1504.00
2018-09-15T05:09:55.978Z,1576.00
2018-09-15T05:10:55.975Z,1640.00
2018-09-15T05:11:55.977Z,1728.00
2018-09-15T05:12:56.059Z,1832.00
2018-09-15T05:13:55.974Z,1908.00
2018-09-15T05:14:55.971Z,1996.00
2018-09-15T05:15:55.972Z,2128.00
2018-09-15T05:16:55.968Z,2212.00
2018-09-15T05:17:55.999Z,2276.00
2018-09-15T05:18:55.965Z,2308.00
2018-09-15T05:19:55.964Z,2344.00
2018-09-15T05:20:55.956Z,2408.00
2018-09-15T05:21:55.992Z,2516.00
2018-09-15T05:22:55.963Z,2660.00
2018-09-15T05:23:55.988Z,2832.00
2018-09-15T05:24:55.956Z,3048.00
2018-09-15T05:25:55.965Z,3316.00
2018-09-15T05:26:55.953Z,3592.00
2018-09-15T05:27:55.980Z,3784.00
2018-09-15T05:28:55.974Z,3856.00
2018-09-15T05:29:55.951Z,4060.00
2018-09-15T05:30:55.962Z,4140.00
2018-09-15T05:31:58.443Z,4176.00
2018-09-15T05:33:00.742Z,4256.00
2018-09-15T05:33:58.805Z,4272.00
2018-09-15T05:35:02.273Z,4288.00
2018-09-15T05:35:58.072Z,4224.00
2018-09-15T05:36:55.943Z,4112.00
2018-09-15T05:37:55.976Z,4184.00
2018-09-15T05:39:01.271Z,4284.00
2018-09-15T05:40:00.834Z,4300.00
2018-09-15T05:40:55.936Z,4192.00
2018-09-15T05:41:59.302Z,4196.00
2018-09-15T05:43:10.290Z,4196.00
2018-09-15T05:44:19.010Z,4300.00
2018-09-15T05:44:55.940Z,4480.00
2018-09-15T05:45:55.947Z,4676.00
2018-09-15T05:46:58.781Z,4864.00
2018-09-15T05:47:55.962Z,4904.00
2018-09-15T05:49:03.293Z,4868.00
2018-09-15T05:50:00.123Z,4876.00
2018-09-15T05:50:57.129Z,4960.00
2018-09-15T05:51:55.941Z,4976.00
2018-09-15T05:52:56.881Z,5020.00
2018-09-15T05:53:56.050Z,5048.00
2018-09-15T05:54:56.152Z,5072.00
2018-09-15T05:56:00.801Z,5080.00
2018-09-15T05:56:55.930Z,5088.00
2018-09-15T05:57:55.956Z,5192.00
2018-09-15T05:58:55.949Z,5284.00
2018-09-15T05:59:55.934Z,5380.00
2018-09-15T06:00:55.927Z,5476.00
2018-09-15T06:01:56.793Z,5648.00
2018-09-15T06:02:55.979Z,5948.00
2018-09-15T06:03:55.925Z,6176.00
2018-09-15T06:04:56.026Z,6340.00
2018-09-15T06:05:55.922Z,6484.00
2018-09-15T06:06:55.988Z,6576.00
2018-09-15T06:07:55.956Z,6628.00
2018-09-15T06:08:55.917Z,6756.00
2018-09-15T06:09:55.920Z,6860.00
2018-09-15T06:10:55.917Z,6952.00
2018-09-15T06:11:55.912Z,7000.00
2018-09-15T06:12:55.953Z,7040.00
2018-09-15T06:13:55.913Z,7124.00
2018-09-15T06:14:55.914Z,7228.00
2018-09-15T06:15:55.915Z,7240.00
2018-09-15T06:16:55.916Z,7280.00
2018-09-15T06:17:55.937Z,7320.00
2018-09-15T06:18:55.911Z,7364.00
2018-09-15T06:19:55.906Z,7388.00
2018-09-15T06:20:55.904Z,7460.00
2018-09-15T06:21:55.908Z,7536.00
2018-09-15T06:22:55.938Z,7620.00
2018-09-15T06:23:55.906Z,7864.00
2018-09-15T06:24:56.066Z,8320.00
2018-09-15T06:25:55.902Z,8612.00
2018-09-15T06:27:02.907Z,8612.00
2018-09-15T06:27:58.755Z,8424.00
2018-09-15T06:29:03.268Z,8352.00
2018-09-15T06:29:57.875Z,8396.00
2018-09-15T06:30:58.922Z,8504.00
2018-09-15T06:31:56.237Z,8548.00
2018-09-15T06:34:00.765Z,8520.00
2018-09-15T06:34:57.528Z,8512.00
2018-09-15T06:35:58.756Z,8500.00
2018-09-15T06:36:56.263Z,8476.00
2018-09-15T06:38:02.848Z,8508.00
2018-09-15T06:39:01.768Z,8536.00
2018-09-15T06:39:57.595Z,8556.00
2018-09-15T06:40:56.842Z,8620.00
2018-09-15T06:41:58.278Z,8624.00
2018-09-15T06:42:55.956Z,8672.00
2018-09-15T06:43:56.717Z,8764.00
2018-09-15T06:45:02.819Z,8876.00
2018-09-15T06:46:00.320Z,9004.00
2018-09-15T06:46:58.607Z,9152.00
2018-09-15T06:47:55.964Z,9196.00
2018-09-15T06:48:55.954Z,9256.00
2018-09-15T06:49:55.934Z,9240.00
2018-09-15T06:50:55.943Z,9276.00
2018-09-15T06:51:55.940Z,9368.00
2018-09-15T06:52:55.937Z,9536.00
2018-09-15T06:53:55.984Z,9672.00
2018-09-15T06:54:55.945Z,9736.00
2018-09-15T06:55:55.944Z,9808.00
2018-09-15T06:56:55.947Z,9824.00
2018-09-15T06:57:55.946Z,9884.00
2018-09-15T06:58:55.983Z,9940.00
2018-09-15T06:59:55.947Z,9980.00
2018-09-15T07:00:55.975Z,10108.00
2018-09-15T07:01:55.973Z,10240.00
2018-09-15T07:02:55.960Z,10284.00
2018-09-15T07:03:55.987Z,10300.00
2018-09-15T07:04:55.964Z,10388.00
2018-09-15T07:05:55.963Z,10496.00
2018-09-15T07:06:56.031Z,10672.00
2018-09-15T07:07:55.965Z,10740.00
2018-09-15T07:08:55.997Z,10808.00
2018-09-15T07:09:55.976Z,10796.00
2018-09-15T07:10:55.981Z,10872.00
2018-09-15T07:11:55.984Z,10972.00
2018-09-15T07:12:56.033Z,10976.00
2018-09-15T07:13:56.023Z,11028.00
2018-09-15T07:14:55.993Z,11180.00
2018-09-15T07:15:55.995Z,11340.00
2018-09-15T07:16:56.005Z,11548.00
2018-09-15T07:17:56.031Z,11636.00
2018-09-15T07:18:56.013Z,11624.00
2018-09-15T07:19:56.106Z,11608.00
2018-09-15T07:20:56.024Z,11620.00
2018-09-15T07:21:56.022Z,11732.00
2018-09-15T07:22:56.054Z,11788.00
2018-09-15T07:23:56.030Z,11808.00
2018-09-15T07:24:56.038Z,11812.00
2018-09-15T07:25:56.064Z,11844.00
2018-09-15T07:26:56.047Z,11988.00
2018-09-15T07:27:56.078Z,12100.00
2018-09-15T07:28:56.060Z,12196.00
2018-09-15T07:29:56.059Z,12276.00
2018-09-15T07:30:56.068Z,12468.00
2018-09-15T07:31:56.105Z,12528.00
2018-09-15T07:32:56.112Z,12588.00
2018-09-15T07:33:56.085Z,12700.00
2018-09-15T07:34:56.152Z,12800.00
2018-09-15T07:35:56.099Z,12788.00
2018-09-15T07:36:56.107Z,13092.00
2018-09-15T07:37:56.135Z,13228.00
2018-09-15T07:38:56.119Z,13316.00
2018-09-15T07:39:56.129Z,13396.00
2018-09-15T07:40:56.130Z,13220.00
2018-09-15T07:41:56.138Z,13456.00
2018-09-15T07:42:56.173Z,13508.00
2018-09-15T07:43:56.150Z,13440.00
2018-09-15T07:44:56.162Z,13536.00
2018-09-15T07:45:56.185Z,13328.00
2018-09-15T07:46:56.170Z,12592.00
2018-09-15T07:47:56.210Z,12936.00
2018-09-15T07:48:56.186Z,13632.00
2018-09-15T07:49:56.200Z,13544.00
2018-09-15T07:50:56.194Z,13448.00
2018-09-15T07:51:56.213Z,14168.00
2018-09-15T07:52:56.247Z,14708.00
2018-09-15T07:53:56.226Z,14988.00
2018-09-15T07:54:56.235Z,15108.00
2018-09-15T07:55:56.247Z,15444.00
2018-09-15T07:56:56.251Z,15708.00
2018-09-15T07:57:56.390Z,15456.00
2018-09-15T07:58:56.272Z,15192.00
2018-09-15T07:59:56.276Z,15584.00
2018-09-15T08:00:56.284Z,15556.00
2018-09-15T08:01:56.305Z,14588.00
2018-09-15T08:02:56.324Z,14584.00
2018-09-15T08:03:56.305Z,14732.00
2018-09-15T08:04:56.467Z,14868.00
2018-09-15T08:05:56.322Z,14488.00
2018-09-15T08:06:56.336Z,14296.00
2018-09-15T08:07:56.365Z,14408.00
2018-09-15T08:08:56.376Z,14332.00
2018-09-15T08:09:56.357Z,14464.00
2018-09-15T08:10:56.372Z,14680.00
2018-09-15T08:11:56.374Z,14128.00
2018-09-15T08:12:56.413Z,13796.00
2018-09-15T08:13:56.396Z,13968.00
2018-09-15T08:14:56.402Z,14112.00
2018-09-15T08:15:56.408Z,14156.00
2018-09-15T08:16:56.414Z,14108.00
2018-09-15T08:17:56.453Z,14476.00
2018-09-15T08:18:56.435Z,14572.00
2018-09-15T08:19:56.442Z,14548.00
2018-09-15T08:20:56.443Z,13512.00
2018-09-15T08:21:56.459Z,14392.00
2018-09-15T08:22:56.500Z,14812.00
2018-09-15T08:23:56.475Z,14704.00
2018-09-15T08:24:56.483Z,14844.00
2018-09-15T08:25:56.491Z,15084.00
2018-09-15T08:26:56.499Z,15616.00
2018-09-15T08:27:56.539Z,16788.00
2018-09-15T08:28:56.517Z,16448.00
2018-09-15T08:29:56.528Z,16468.00
2018-09-15T08:30:56.543Z,16216.00
2018-09-15T08:31:56.589Z,16048.00
2018-09-15T08:32:56.580Z,16416.00
2018-09-15T08:33:56.564Z,16792.00
2018-09-15T08:34:56.576Z,16828.00
2018-09-15T08:35:56.580Z,16888.00
2018-09-15T08:36:56.621Z,17112.00
2018-09-15T08:37:56.628Z,17356.00
2018-09-15T08:38:56.612Z,18528.00
2018-09-15T08:39:56.618Z,19488.00
2018-09-15T08:40:56.633Z,18656.00
2018-09-15T08:41:56.670Z,17812.00
2018-09-15T08:42:56.685Z,18052.00
2018-09-15T08:43:56.661Z,18124.00
2018-09-15T08:44:57.457Z,18112.00
2018-09-15T08:45:56.681Z,18248.00
2018-09-15T08:46:56.717Z,18508.00
2018-09-15T08:47:56.697Z,18168.00
2018-09-15T08:48:56.710Z,18184.00
2018-09-15T08:49:56.722Z,17960.00
2018-09-15T08:50:56.731Z,17600.00
2018-09-15T08:51:56.771Z,17812.00
2018-09-15T08:52:56.751Z,18132.00
2018-09-15T08:53:56.762Z,19392.00
2018-09-15T08:54:56.769Z,19488.00
2018-09-15T08:55:56.783Z,18708.00
2018-09-15T08:56:56.823Z,19360.00
2018-09-15T08:57:56.804Z,19808.00
2018-09-15T08:58:56.820Z,19392.00
2018-09-15T08:59:56.852Z,19392.00
2018-09-15T09:00:56.833Z,19136.00
2018-09-15T09:01:56.843Z,18320.00
2018-09-15T09:02:56.890Z,17976.00
2018-09-15T09:03:56.868Z,18592.00
2018-09-15T09:04:56.877Z,18080.00
2018-09-15T09:05:56.888Z,17856.00
2018-09-15T09:06:56.897Z,17788.00
2018-09-15T09:07:56.936Z,17908.00
2018-09-15T09:08:56.921Z,18072.00
2018-09-15T09:09:56.934Z,17920.00
2018-09-15T09:10:56.945Z,17792.00
2018-09-15T09:11:56.953Z,18240.00
2018-09-15T09:12:56.993Z,18156.00
2018-09-15T09:13:56.978Z,18476.00
2018-09-15T09:14:56.989Z,18612.00
2018-09-15T09:15:56.999Z,18532.00
2018-09-15T09:16:57.014Z,18560.00
2018-09-15T09:17:57.048Z,18880.00
2018-09-15T09:18:57.036Z,19072.00
2018-09-15T09:19:57.093Z,19296.00
2018-09-15T09:20:57.062Z,19456.00
2018-09-15T09:21:57.096Z,19552.00
2018-09-15T09:22:57.082Z,20128.00
2018-09-15T09:23:57.090Z,20704.00
2018-09-15T09:24:57.227Z,20864.00
2018-09-15T09:25:57.155Z,21280.00
2018-09-15T09:26:57.289Z,21856.00
2018-09-15T09:27:57.135Z,22240.00
2018-09-15T09:28:57.151Z,22592.00
2018-09-15T09:29:57.169Z,22880.00
2018-09-15T09:30:57.226Z,23424.00
2018-09-15T09:31:57.219Z,24320.00
2018-09-15T09:32:57.200Z,25216.00
2018-09-15T09:33:57.213Z,26592.00
2018-09-15T09:34:57.234Z,27648.00
2018-09-15T09:35:57.237Z,28608.00
2018-09-15T09:36:57.276Z,28032.00
2018-09-15T09:37:57.264Z,28544.00
2018-09-15T09:38:57.276Z,29504.00
2018-09-15T09:39:57.288Z,29056.00
2018-09-15T09:40:57.297Z,28704.00
2018-09-15T09:41:57.345Z,28608.00
2018-09-15T09:42:57.334Z,27520.00
2018-09-15T09:43:57.343Z,26720.00
2018-09-15T09:44:57.349Z,26560.00
2018-09-15T09:45:57.395Z,27424.00
2018-09-15T09:46:57.387Z,27616.00
2018-09-15T09:47:57.470Z,27584.00
2018-09-15T09:48:57.410Z,28064.00
2018-09-15T09:49:57.419Z,29696.00
2018-09-15T09:50:57.432Z,30432.00
2018-09-15T09:51:57.471Z,31424.00
2018-09-15T09:52:57.459Z,31840.00
2018-09-15T09:53:57.471Z,33024.00
2018-09-15T09:54:57.492Z,35616.00
2018-09-15T09:55:57.503Z,37344.00
2018-09-15T09:56:57.539Z,33216.00
2018-09-15T09:57:57.528Z,40896.00
2018-09-15T09:58:57.540Z,42176.00
2018-09-15T09:59:57.558Z,44064.00
2018-09-15T10:00:57.568Z,44384.00
2018-09-15T10:01:57.612Z,43680.00
2018-09-15T10:02:57.605Z,43776.00
2018-09-15T10:03:57.615Z,45888.00
2018-09-15T10:04:57.625Z,48224.00
2018-09-15T10:05:57.638Z,50624.00
2018-09-15T10:06:57.719Z,54400.00
2018-09-15T10:07:57.666Z,58144.00
2018-09-15T10:08:57.685Z,60128.00
2018-09-15T10:09:57.701Z,60960.00
2018-09-15T10:10:57.714Z,63616.00
2018-09-15T10:11:57.757Z,66848.00
2018-09-15T10:12:57.743Z,69216.00
2018-09-15T10:13:57.758Z,69824.00
2018-09-15T10:14:57.769Z,71296.00
2018-09-15T10:15:57.808Z,74432.00
2018-09-15T10:16:57.830Z,77536.00
2018-09-15T10:17:57.822Z,79168.00
2018-09-15T10:18:57.840Z,81024.00
2018-09-15T10:19:57.849Z,81120.00
2018-09-15T10:20:57.866Z,81824.00
2018-09-15T10:21:57.911Z,79136.00
2018-09-15T10:22:57.904Z,86912.00
2018-09-15T10:23:57.914Z,93504.00
2018-09-15T10:24:57.933Z,92864.00
2018-09-15T10:25:57.952Z,93184.00
2018-09-15T10:26:57.988Z,96576.00
2018-09-15T10:27:57.976Z,100224.00
2018-09-15T10:28:57.994Z,101664.00
2018-09-15T10:29:58.013Z,102432.00
2018-09-15T10:30:58.033Z,104256.00
2018-09-15T10:31:58.084Z,106304.00
2018-09-15T10:32:58.061Z,106464.00
2018-09-15T10:33:58.076Z,31520.00
2018-09-15T10:34:58.094Z,108864.00
2018-09-15T10:35:58.112Z,99296.00
2018-09-15T10:36:58.156Z,62208.00
2018-09-15T10:37:58.143Z,98752.00
2018-09-15T10:38:58.166Z,99488.00
2018-09-15T10:39:58.178Z,101216.00
2018-09-15T10:40:58.191Z,104416.00
2018-09-15T10:41:58.235Z,105472.00
2018-09-15T10:42:58.223Z,110144.00
2018-09-15T10:43:58.235Z,111040.00
2018-09-15T10:44:58.251Z,107552.00
2018-09-15T10:45:58.349Z,105952.00
2018-09-15T10:46:58.316Z,105952.00
2018-09-15T10:47:58.923Z,112160.00
2018-09-15T10:48:58.928Z,117440.00
2018-09-15T10:49:59.023Z,68640.00
2018-09-15T10:50:58.924Z,41408.00
2018-09-15T10:51:58.428Z,36192.00
2018-09-15T10:52:58.381Z,44672.00
2018-09-15T10:53:58.397Z,36768.00
2018-09-15T10:54:58.410Z,112384.00
2018-09-15T10:55:58.426Z,110304.00
2018-09-15T10:56:58.460Z,108992.00
2018-09-15T10:57:58.452Z,111040.00
2018-09-15T10:59:00.300Z,111136.00
2018-09-15T10:59:59.885Z,109568.00
2018-09-15T11:00:59.344Z,115264.00
2018-09-15T11:02:01.447Z,40704.00
2018-09-15T11:03:01.025Z,34656.00
2018-09-15T11:04:58.553Z,32224.00
2018-09-15T11:05:58.635Z,32800.00
2018-09-15T11:06:58.612Z,32896.00
2018-09-15T11:07:58.750Z,33760.00
2018-09-15T11:08:58.606Z,36768.00
2018-09-15T11:09:59.483Z,31872.00
2018-09-15T11:10:59.415Z,31008.00
2018-09-15T11:11:58.674Z,29504.00
2018-09-15T11:12:59.422Z,27520.00
2018-09-15T11:13:58.663Z,25248.00
2018-09-15T11:14:58.679Z,23328.00
2018-09-15T11:15:58.684Z,22400.00
2018-09-15T11:16:58.720Z,22464.00
2018-09-15T11:17:58.700Z,25472.00
2018-09-15T11:18:58.702Z,24352.00
2018-09-15T11:19:58.721Z,24672.00
2018-09-15T11:20:58.729Z,23616.00
2018-09-15T11:21:58.765Z,21248.00
2018-09-15T11:22:58.777Z,20960.00
2018-09-15T11:24:00.352Z,23360.00
2018-09-15T11:25:00.357Z,76256.00
2018-09-15T11:25:58.769Z,106144.00
2018-09-15T11:26:59.409Z,49792.00
2018-09-15T11:28:00.355Z,30112.00
2018-09-15T11:29:01.426Z,29760.00
2018-09-15T11:29:58.806Z,35552.00
2018-09-15T11:30:58.811Z,41568.00
2018-09-15T11:31:58.850Z,34624.00
2018-09-15T11:32:58.856Z,114560.00
2018-09-15T11:33:58.843Z,119232.00
2018-09-15T11:34:58.847Z,119200.00
2018-09-15T11:35:58.857Z,65152.00
2018-09-15T11:36:58.902Z,116672.00
2018-09-15T11:37:58.907Z,68288.00
2018-09-15T11:38:58.892Z,52608.00
2018-09-15T11:39:58.897Z,40480.00
2018-09-15T11:40:58.913Z,42112.00
2018-09-15T11:41:58.953Z,46976.00
2018-09-15T11:42:58.958Z,38304.00
2018-09-15T11:43:58.947Z,35648.00
2018-09-15T11:44:58.957Z,43424.00
2018-09-15T11:45:58.969Z,56928.00
2018-09-15T11:46:58.977Z,110080.00
2018-09-15T11:47:59.041Z,108256.00
2018-09-15T11:48:59.937Z,106240.00
2018-09-15T11:49:59.015Z,64064.00
2018-09-15T11:50:59.022Z,32160.00
2018-09-15T11:51:59.034Z,92864.00
2018-09-15T11:52:59.864Z,100128.00
2018-09-15T11:53:59.095Z,95424.00
2018-09-15T11:54:59.069Z,103552.00
2018-09-15T11:55:59.080Z,103360.00
2018-09-15T11:56:59.096Z,58400.00
2018-09-15T11:57:59.150Z,112832.00
2018-09-15T11:58:59.124Z,76992.00
2018-09-15T11:59:59.202Z,28800.00
2018-09-15T12:00:59.148Z,28288.00
2018-09-15T12:01:59.361Z,31232.00
2018-09-15T12:02:59.201Z,114720.00
2018-09-15T12:03:59.186Z,111680.00
2018-09-15T12:04:59.278Z,110848.00
2018-09-15T12:05:59.222Z,109216.00
2018-09-15T12:06:59.262Z,108352.00
2018-09-15T12:07:59.242Z,108416.00
2018-09-15T12:08:59.260Z,109248.00
2018-09-15T12:09:59.274Z,106720.00
2018-09-15T12:10:59.283Z,107040.00
2018-09-15T12:12:00.091Z,32544.00
2018-09-15T12:12:59.318Z,29728.00
2018-09-15T12:13:59.326Z,39328.00
2018-09-15T12:15:00.003Z,109376.00
2018-09-15T12:15:59.363Z,108256.00
2018-09-15T12:16:59.379Z,106432.00
2018-09-15T12:17:59.420Z,105312.00
2018-09-15T12:18:59.407Z,107328.00
2018-09-15T12:19:59.430Z,107232.00
2018-09-15T12:20:59.436Z,107296.00
2018-09-15T12:21:59.453Z,107648.00